MTS weather

Matsapha Airport
Manzini, Manzini, Swaziland

Public forecast

Using degrees Celsius for public forecast. Weather courtesy of forecast.io.

METAR (pilot weather report)

Report is more than 2 hours old.

Retrieved 2019/07/15 13:00 UTC (4 hours ago):

FDMS 151300Z 08010KT CAVOK 26/06 Q1022 NOSIG

TAF (pilot weather forecast)

Forecast is more than 12 hours old.

Retrieved 2019/06/03 12:35 UTC (1 month ago):

TAF FDMS 031000Z 0312/0418 12006KT CAVOK